createdAt,value
2022-08-11T00:05:08.282Z,38.41
2022-08-11T00:10:13.638Z,39.07
2022-08-11T00:15:18.801Z,38.86
2022-08-11T00:20:22.390Z,38.76
2022-08-11T00:25:25.954Z,38.93
2022-08-11T00:30:39.520Z,39.72
2022-08-11T00:35:54.254Z,39.51
2022-08-11T00:41:08.252Z,39.70
2022-08-11T00:46:23.164Z,40.95
2022-08-11T00:52:04.152Z,41.11
2022-08-11T00:57:45.910Z,40.10
2022-08-11T01:03:12.949Z,41.17
2022-08-11T01:08:31.423Z,41.02
2022-08-11T01:13:53.503Z,42.15
2022-08-11T01:19:34.124Z,42.31
2022-08-11T01:25:25.506Z,41.77
2022-08-11T01:30:47.552Z,41.65
2022-08-11T01:36:42.189Z,41.87
2022-08-11T01:42:22.449Z,42.38
2022-08-11T01:47:53.253Z,43.30
2022-08-11T01:53:06.203Z,42.95
2022-08-11T01:58:15.334Z,42.64
2022-08-11T02:03:25.719Z,42.91
2022-08-11T02:08:44.790Z,44.18
2022-08-11T02:14:01.008Z,44.13
2022-08-11T02:19:26.856Z,44.07
2022-08-11T02:24:36.117Z,43.42
2022-08-11T02:30:12.422Z,44.64
2022-08-11T02:35:18.900Z,43.94
2022-08-11T02:40:37.209Z,42.89
2022-08-11T02:45:54.514Z,43.19
2022-08-11T02:51:06.363Z,43.48
2022-08-11T02:56:17.530Z,42.86
2022-08-11T03:01:25.212Z,43.29
2022-08-11T03:06:35.589Z,43.70
2022-08-11T03:12:11.298Z,44.63
2022-08-11T03:17:26.459Z,44.03
2022-08-11T03:22:34.448Z,43.78
2022-08-11T03:27:50.077Z,44.49
2022-08-11T03:33:19.228Z,44.33
2022-08-11T03:38:30.506Z,45.76
2022-08-11T03:43:57.976Z,44.51
2022-08-11T03:49:08.773Z,44.80
2022-08-11T03:54:17.979Z,44.96
2022-08-11T03:59:46.426Z,46.85
2022-08-11T04:05:12.702Z,46.49
2022-08-11T04:11:00.832Z,46.87
2022-08-11T04:16:17.517Z,46.99
2022-08-11T04:21:59.767Z,45.78
2022-08-11T04:27:19.189Z,46.69
2022-08-11T04:32:38.228Z,46.56
2022-08-11T04:37:59.453Z,46.25
2022-08-11T04:44:06.375Z,44.96
2022-08-11T04:49:53.499Z,45.38
2022-08-11T04:55:26.397Z,45.04
2022-08-11T05:00:50.810Z,45.22
2022-08-11T05:06:30.683Z,45.03
2022-08-11T05:11:50.514Z,45.28
2022-08-11T05:17:23.444Z,45.79
2022-08-11T05:22:48.160Z,44.72
2022-08-11T05:28:12.966Z,44.82
2022-08-11T05:33:37.915Z,45.17
2022-08-11T05:39:09.281Z,44.96
2022-08-11T05:44:36.497Z,44.35
2022-08-11T05:49:57.988Z,43.68
2022-08-11T05:55:22.647Z,43.67
2022-08-11T06:00:26.755Z,42.74
2022-08-11T06:05:38.373Z,42.02
2022-08-11T06:10:48.679Z,41.95
2022-08-11T06:15:52.949Z,41.73
2022-08-11T06:20:58.376Z,40.86
2022-08-11T06:26:03.481Z,40.49
2022-08-11T06:31:14.060Z,40.25
2022-08-11T06:36:25.026Z,39.14
2022-08-11T06:41:35.151Z,39.07
2022-08-11T06:46:40.385Z,38.81
2022-08-11T06:51:48.981Z,38.35
2022-08-11T06:57:29.413Z,38.03
2022-08-11T07:02:38.250Z,37.45
2022-08-11T07:08:34.347Z,36.98
2022-08-11T07:13:54.768Z,36.86
2022-08-11T07:19:20.378Z,36.80
2022-08-11T07:25:03.039Z,36.27
2022-08-11T07:30:11.310Z,35.68
2022-08-11T07:35:17.831Z,35.62
2022-08-11T07:40:22.926Z,35.36
2022-08-11T07:45:46.342Z,35.02
2022-08-11T07:51:07.813Z,34.15
2022-08-11T07:56:16.062Z,33.57
2022-08-11T08:01:43.427Z,33.31
2022-08-11T08:07:04.270Z,33.42
2022-08-11T08:12:26.911Z,32.88
2022-08-11T08:18:20.537Z,33.13
2022-08-11T08:23:15.988Z,31.93
2022-08-11T08:28:21.220Z,32.35
2022-08-11T08:33:28.031Z,31.96
2022-08-11T08:38:31.622Z,30.86
2022-08-11T08:43:48.876Z,29.49
2022-08-11T08:48:54.561Z,29.64
2022-08-11T08:54:02.651Z,29.15
2022-08-11T08:59:06.417Z,28.60
2022-08-11T09:04:15.238Z,28.11
2022-08-11T09:09:21.788Z,26.83
2022-08-11T09:14:46.739Z,26.69
2022-08-11T09:19:58.656Z,26.44
2022-08-11T09:25:22.200Z,24.20
2022-08-11T09:30:26.916Z,23.63
2022-08-11T09:35:36.721Z,23.26
2022-08-11T09:40:40.599Z,21.98
2022-08-11T09:45:46.403Z,21.22
2022-08-11T09:50:54.231Z,21.49
2022-08-11T09:55:58.523Z,21.56
2022-08-11T10:01:03.833Z,21.74
2022-08-11T10:06:34.134Z,21.20
2022-08-11T10:11:39.814Z,20.60
2022-08-11T10:16:43.590Z,20.21
2022-08-11T10:22:11.911Z,19.71
2022-08-11T10:28:30.482Z,20.06
2022-08-11T10:33:37.567Z,20.40
2022-08-11T10:38:45.757Z,18.40
2022-08-11T10:44:02.070Z,19.65
2022-08-11T10:49:08.359Z,19.05
2022-08-11T10:54:33.349Z,18.98
2022-08-11T10:59:37.081Z,17.68
2022-08-11T11:04:50.954Z,18.71
2022-08-11T11:09:59.079Z,18.74
2022-08-11T11:15:21.601Z,17.67
2022-08-11T11:20:37.038Z,18.55
2022-08-11T11:26:12.518Z,17.17
2022-08-11T11:31:28.433Z,16.98
2022-08-11T11:36:40.435Z,17.49
2022-08-11T11:41:45.689Z,16.55
2022-08-11T11:46:49.391Z,17.32
2022-08-11T11:51:53.662Z,16.66
2022-08-11T11:57:19.494Z,15.88
2022-08-11T12:02:23.407Z,17.20
2022-08-11T12:07:44.702Z,15.72
2022-08-11T12:13:07.265Z,14.84
2022-08-11T12:18:11.506Z,15.41
2022-08-11T12:23:33.045Z,15.65
2022-08-11T12:28:40.335Z,15.58
2022-08-11T12:33:44.508Z,15.82
2022-08-11T12:38:51.220Z,15.39
2022-08-11T12:44:14.955Z,14.54
2022-08-11T12:49:41.899Z,14.62
2022-08-11T12:54:57.807Z,14.68
2022-08-11T13:00:29.358Z,14.37
2022-08-11T13:05:34.065Z,13.79
2022-08-11T13:11:04.723Z,14.22
2022-08-11T13:16:10.127Z,15.40
2022-08-11T13:21:20.118Z,14.00
2022-08-11T13:26:41.643Z,14.47
2022-08-11T13:31:50.533Z,14.92
2022-08-11T13:36:55.856Z,14.83
2022-08-11T13:42:06.560Z,13.60
2022-08-11T13:47:14.632Z,14.23
2022-08-11T13:52:18.855Z,15.08
2022-08-11T13:58:07.685Z,13.05
2022-08-11T14:02:52.402Z,12.75
2022-08-11T14:08:00.262Z,12.93
2022-08-11T14:13:25.622Z,13.92
2022-08-11T14:18:32.151Z,13.36
2022-08-11T14:23:38.752Z,13.16
2022-08-11T14:28:44.945Z,14.21
2022-08-11T14:34:00.169Z,13.79
2022-08-11T14:39:08.669Z,12.68
2022-08-11T14:44:30.739Z,13.38
2022-08-11T14:49:37.065Z,13.25
2022-08-11T14:55:18.259Z,13.49
2022-08-11T15:00:22.920Z,14.28
2022-08-11T15:05:28.702Z,12.92
2022-08-11T15:10:32.259Z,13.85
2022-08-11T15:15:53.642Z,13.44
2022-08-11T15:21:15.873Z,13.15
2022-08-11T15:27:06.859Z,13.05
2022-08-11T15:32:46.610Z,13.65
2022-08-11T15:37:57.102Z,14.89
2022-08-11T15:43:21.985Z,14.80
2022-08-11T15:48:35.925Z,14.04
2022-08-11T15:53:44.634Z,13.60
2022-08-11T15:59:41.089Z,14.53
2022-08-11T17:00:43.654Z,17.27
2022-08-11T17:06:09.652Z,15.50
2022-08-11T17:11:31.025Z,15.31
2022-08-11T17:16:37.487Z,16.08
2022-08-11T17:22:04.872Z,15.90
2022-08-11T17:27:09.153Z,16.04
2022-08-11T17:32:57.185Z,15.94
2022-08-11T17:38:03.864Z,16.62
2022-08-11T17:43:26.802Z,16.85
2022-08-11T17:48:47.353Z,17.42
2022-08-11T17:54:23.973Z,16.86
2022-08-11T17:59:49.196Z,17.02
2022-08-11T18:04:55.108Z,17.86
2022-08-11T18:10:16.455Z,18.24
2022-08-11T18:15:37.407Z,18.89
2022-08-11T18:21:12.635Z,19.21
2022-08-11T18:26:36.321Z,19.07
2022-08-11T18:32:01.237Z,18.97
2022-08-11T18:37:29.051Z,19.52
2022-08-11T18:42:51.538Z,19.69
2022-08-11T18:48:17.477Z,20.10
2022-08-11T18:53:41.253Z,21.44
2022-08-11T18:59:05.761Z,22.06
2022-08-11T19:04:29.841Z,22.25
2022-08-11T19:09:53.700Z,23.15
2022-08-11T19:15:16.879Z,23.73
2022-08-11T19:20:40.018Z,23.83
2022-08-11T19:26:04.122Z,24.76
2022-08-11T19:31:26.749Z,25.33
2022-08-11T19:36:48.204Z,25.91
2022-08-11T19:42:10.825Z,25.66
2022-08-11T19:47:32.585Z,26.18
2022-08-11T19:52:54.570Z,25.59
2022-08-11T19:58:16.964Z,26.06
2022-08-11T20:03:38.231Z,25.81
2022-08-11T20:09:01.882Z,25.73
2022-08-11T20:14:25.314Z,26.15
2022-08-11T20:19:55.935Z,26.28
2022-08-11T20:25:17.809Z,26.33
2022-08-11T20:30:40.500Z,26.46
2022-08-11T20:36:01.614Z,26.86
2022-08-11T20:41:23.082Z,27.73
2022-08-11T20:46:45.744Z,27.25
2022-08-11T20:52:07.261Z,27.43
2022-08-11T20:57:45.754Z,27.52
2022-08-11T21:03:15.532Z,26.99
2022-08-11T21:08:56.390Z,27.61
2022-08-11T21:14:19.476Z,27.73
2022-08-11T21:20:00.719Z,28.37
2022-08-11T21:25:27.875Z,28.41
2022-08-11T21:30:49.813Z,28.44
2022-08-11T21:36:12.418Z,28.24
2022-08-11T21:41:35.321Z,29.02
2022-08-11T21:46:57.214Z,28.99
2022-08-11T21:52:19.525Z,30.00
2022-08-11T21:57:47.653Z,28.97
2022-08-11T22:03:09.468Z,30.05
2022-08-11T22:08:32.663Z,30.18
2022-08-11T22:14:02.974Z,30.01
2022-08-11T22:19:29.518Z,30.16
2022-08-11T22:24:52.792Z,29.99
2022-08-11T22:30:13.976Z,30.56
2022-08-11T22:35:35.916Z,30.17
2022-08-11T22:40:58.222Z,30.44
2022-08-11T22:46:22.510Z,30.92
2022-08-11T22:51:43.898Z,30.87
2022-08-11T22:57:06.818Z,30.47
2022-08-11T23:02:28.542Z,30.93
2022-08-11T23:07:51.778Z,31.15
2022-08-11T23:13:14.809Z,30.63
2022-08-11T23:18:44.065Z,30.93
2022-08-11T23:24:05.896Z,31.27
2022-08-11T23:29:29.778Z,31.57
2022-08-11T23:35:03.643Z,31.25
2022-08-11T23:40:35.735Z,31.58
2022-08-11T23:45:58.427Z,31.80
2022-08-11T23:51:19.677Z,31.80
2022-08-11T23:56:41.263Z,31.78
